Time;durP1;ratioP1;P1;durP2;ratioP2;P2;SDS_P1;SDS_P2;PMS_P1;PMS_P2;Temp;Humidity;BMP_temperature;BMP_pressure;BME280_temperature;BME280_humidity;BME280_pressure;Samples;Min_cycle;Max_cycle;Signal;HPM_P1;HPM_P2
2022/09/16 00:02:42;;;;;;;10.23;2.70;;;;;;;;;;10395818;28;20437;-55
2022/09/16 00:07:42;;;;;;;3.77;1.90;;;;;;;;;;10395178;28;20159;-55
2022/09/16 00:12:42;;;;;;;9.40;2.30;;;;;;;;;;10404401;28;21245;-55
2022/09/16 00:17:42;;;;;;;9.40;2.35;;;;;;;;;;10397651;28;20406;-56
2022/09/16 00:22:43;;;;;;;6.10;2.15;;;;;;;;;;10405628;28;20047;-56
2022/09/16 00:27:46;;;;;;;7.93;2.80;;;;;;;;;;10403866;28;20111;-54
2022/09/16 00:32:46;;;;;;;21.70;2.80;;;;;;;;;;10403432;28;20026;-55
2022/09/16 00:37:46;;;;;;;5.78;2.47;;;;;;;;;;10406401;28;20435;-54
2022/09/16 00:42:46;;;;;;;6.45;2.55;;;;;;;;;;10394481;28;20021;-54
2022/09/16 00:47:51;;;;;;;5.57;2.20;;;;;;;;;;10407829;28;20033;-54
2022/09/16 00:52:52;;;;;;;4.72;2.40;;;;;;;;;;10406502;28;20116;-55
2022/09/16 00:57:54;;;;;;;8.43;2.50;;;;;;;;;;10406652;28;20056;-53
2022/09/16 01:02:54;;;;;;;5.00;2.22;;;;;;;;;;10407056;28;20037;-54
2022/09/16 01:07:54;;;;;;;3.70;2.07;;;;;;;;;;10381464;28;20041;-54
2022/09/16 01:12:58;;;;;;;9.07;2.30;;;;;;;;;;10393684;28;20657;-55
2022/09/16 01:18:04;;;;;;;9.45;2.35;;;;;;;;;;10403097;28;20051;-53
2022/09/16 01:23:04;;;;;;;8.20;2.40;;;;;;;;;;10396973;28;20504;-55
2022/09/16 01:28:33;;;;;;;15.27;2.45;;;;;;;;;;10387628;28;20033;-56
2022/09/16 01:33:37;;;;;;;8.68;2.35;;;;;;;;;;10399147;28;20041;-55
2022/09/16 01:38:37;;;;;;;5.05;2.45;;;;;;;;;;10389523;28;20066;-55
2022/09/16 01:43:53;;;;;;;12.40;2.60;;;;;;;;;;10407610;28;20512;-56
2022/09/16 01:48:57;;;;;;;7.22;2.30;;;;;;;;;;10399774;28;20048;-56
2022/09/16 01:54:02;;;;;;;13.75;2.35;;;;;;;;;;10411435;28;20029;-54
2022/09/16 01:59:02;;;;;;;7.97;2.25;;;;;;;;;;10411266;28;20022;-51
2022/09/16 02:04:10;;;;;;;3.65;1.60;;;;;;;;;;10411940;28;20033;-55
2022/09/16 02:09:17;;;;;;;8.23;2.47;;;;;;;;;;10399907;28;20341;-55
2022/09/16 02:14:22;;;;;;;7.22;2.28;;;;;;;;;;10407145;28;20124;-53
2022/09/16 02:19:29;;;;;;;8.60;2.28;;;;;;;;;;10410010;28;20037;-53
2022/09/16 02:24:30;;;;;;;9.52;2.22;;;;;;;;;;10404993;28;20034;-54
2022/09/16 02:29:40;;;;;;;4.40;2.03;;;;;;;;;;10401796;28;20040;-52
2022/09/16 02:34:42;;;;;;;5.53;2.33;;;;;;;;;;10391730;28;20075;-52
2022/09/16 02:39:45;;;;;;;3.53;2.05;;;;;;;;;;10411885;28;20022;-52
2022/09/16 02:44:46;;;;;;;3.63;1.80;;;;;;;;;;10411838;28;20037;-54
2022/09/16 02:49:52;;;;;;;3.72;2.03;;;;;;;;;;10410329;28;20029;-50
2022/09/16 02:54:53;;;;;;;6.05;2.00;;;;;;;;;;10409558;28;20373;-57
2022/09/16 02:59:53;;;;;;;12.90;1.90;;;;;;;;;;10399955;28;20060;-56
2022/09/16 03:04:53;;;;;;;2.47;1.47;;;;;;;;;;10410380;28;20072;-55
2022/09/16 03:09:54;;;;;;;4.80;1.60;;;;;;;;;;10412436;28;20529;-57
2022/09/16 03:15:00;;;;;;;5.33;1.47;;;;;;;;;;10394341;28;20042;-56
2022/09/16 03:20:12;;;;;;;9.25;1.80;;;;;;;;;;10410429;28;20508;-53
2022/09/16 03:25:21;;;;;;;5.43;1.85;;;;;;;;;;10396396;28;20033;-53
2022/09/16 03:30:22;;;;;;;3.72;1.45;;;;;;;;;;10410166;28;20104;-55
2022/09/16 03:35:28;;;;;;;3.25;1.35;;;;;;;;;;10396533;28;20495;-53
2022/09/16 03:40:30;;;;;;;4.32;1.55;;;;;;;;;;10399009;28;20477;-49
2022/09/16 03:45:30;;;;;;;7.32;1.65;;;;;;;;;;10401170;28;20227;-54
2022/09/16 03:50:30;;;;;;;4.13;1.55;;;;;;;;;;10390350;28;20228;-50
2022/09/16 03:55:30;;;;;;;7.57;1.63;;;;;;;;;;10407329;28;20033;-54
2022/09/16 04:00:31;;;;;;;3.00;1.50;;;;;;;;;;10385165;28;20243;-53
2022/09/16 04:05:32;;;;;;;4.10;1.90;;;;;;;;;;10408719;28;20052;-51
2022/09/16 04:10:33;;;;;;;3.78;1.63;;;;;;;;;;10400065;28;20491;-50
2022/09/16 04:15:35;;;;;;;3.17;1.65;;;;;;;;;;10404449;28;20057;-53
2022/09/16 04:20:36;;;;;;;5.07;1.48;;;;;;;;;;10409088;28;20022;-54
2022/09/16 04:25:36;;;;;;;4.82;1.75;;;;;;;;;;10408299;28;20033;-54
2022/09/16 04:30:37;;;;;;;5.68;1.52;;;;;;;;;;10404302;28;20041;-56
2022/09/16 04:35:37;;;;;;;5.45;1.50;;;;;;;;;;10407962;28;20074;-55
2022/09/16 04:40:38;;;;;;;3.67;1.52;;;;;;;;;;10405441;28;20484;-55
2022/09/16 04:45:39;;;;;;;7.10;1.90;;;;;;;;;;10407124;28;20145;-55
2022/09/16 04:50:39;;;;;;;9.25;1.70;;;;;;;;;;10398366;28;20034;-55
2022/09/16 04:55:39;;;;;;;6.10;2.00;;;;;;;;;;10393578;28;20022;-52
2022/09/16 05:00:40;;;;;;;5.22;1.73;;;;;;;;;;10395693;28;20049;-56
2022/09/16 05:05:40;;;;;;;12.33;2.00;;;;;;;;;;10402480;28;20036;-51
2022/09/16 05:10:40;;;;;;;7.47;1.90;;;;;;;;;;10389570;28;20425;-52
2022/09/16 05:15:40;;;;;;;4.28;1.77;;;;;;;;;;10390870;28;20045;-54
2022/09/16 05:20:41;;;;;;;3.93;1.80;;;;;;;;;;10404743;28;20026;-53
2022/09/16 05:25:41;;;;;;;8.60;2.58;;;;;;;;;;10396654;28;20109;-57
2022/09/16 05:30:41;;;;;;;8.20;2.35;;;;;;;;;;10398531;28;20033;-57
2022/09/16 05:35:42;;;;;;;3.88;2.30;;;;;;;;;;10405610;28;20021;-57
2022/09/16 05:40:42;;;;;;;7.13;2.43;;;;;;;;;;10412160;28;20047;-57
2022/09/16 05:45:50;;;;;;;7.60;2.67;;;;;;;;;;10413701;28;20079;-57
2022/09/16 05:50:54;;;;;;;6.97;2.90;;;;;;;;;;10404307;28;20244;-55
2022/09/16 05:55:58;;;;;;;5.55;2.58;;;;;;;;;;10411139;28;20022;-54
2022/09/16 06:00:59;;;;;;;9.25;2.35;;;;;;;;;;10412035;28;20416;-56
2022/09/16 06:06:04;;;;;;;8.95;2.70;;;;;;;;;;10412730;28;20021;-56
2022/09/16 06:11:05;;;;;;;7.68;2.50;;;;;;;;;;10412983;28;20172;-56
2022/09/16 06:16:07;;;;;;;6.63;2.38;;;;;;;;;;10412674;28;20037;-56
2022/09/16 06:21:08;;;;;;;7.15;2.40;;;;;;;;;;10409022;28;20082;-56
2022/09/16 06:26:12;;;;;;;5.38;2.03;;;;;;;;;;10413469;28;20087;-56
2022/09/16 06:31:19;;;;;;;6.90;2.50;;;;;;;;;;10410093;28;20500;-56
2022/09/16 06:36:22;;;;;;;4.10;2.40;;;;;;;;;;10407681;28;20029;-56
2022/09/16 06:41:22;;;;;;;7.13;1.98;;;;;;;;;;10411292;28;20024;-56
2022/09/16 06:46:23;;;;;;;5.20;2.20;;;;;;;;;;10411144;28;20382;-56
2022/09/16 06:51:28;;;;;;;4.93;2.20;;;;;;;;;;10406218;28;20479;-56
2022/09/16 06:56:29;;;;;;;6.63;2.28;;;;;;;;;;10411571;28;20120;-56
2022/09/16 07:01:29;;;;;;;8.23;2.47;;;;;;;;;;10407089;28;20025;-56
2022/09/16 07:06:31;;;;;;;5.70;2.05;;;;;;;;;;10410872;28;20466;-56
2022/09/16 07:11:32;;;;;;;3.88;2.17;;;;;;;;;;10401101;28;20041;-57
2022/09/16 07:16:32;;;;;;;7.55;2.75;;;;;;;;;;10407828;28;20497;-56
2022/09/16 07:21:32;;;;;;;4.75;2.15;;;;;;;;;;10411129;28;20389;-56
2022/09/16 07:26:34;;;;;;;4.32;1.80;;;;;;;;;;10410124;28;20029;-56
2022/09/16 07:31:35;;;;;;;5.57;2.40;;;;;;;;;;10410377;28;20116;-56
2022/09/16 07:36:38;;;;;;;7.03;2.38;;;;;;;;;;10410184;28;20112;-57
2022/09/16 07:41:39;;;;;;;6.25;2.10;;;;;;;;;;10402919;28;20489;-56
2022/09/16 07:46:39;;;;;;;5.05;2.30;;;;;;;;;;10409452;28;20021;-57
2022/09/16 07:51:40;;;;;;;4.05;2.42;;;;;;;;;;10400437;28;20037;-57
2022/09/16 07:56:41;;;;;;;9.05;2.30;;;;;;;;;;10404073;28;20512;-56
2022/09/16 08:01:41;;;;;;;5.97;2.25;;;;;;;;;;10404640;28;20425;-57
2022/09/16 08:06:42;;;;;;;9.60;2.73;;;;;;;;;;10401037;28;20029;-57
2022/09/16 08:11:42;;;;;;;3.83;2.03;;;;;;;;;;10400719;28;20037;-57
2022/09/16 08:16:42;;;;;;;10.00;2.20;;;;;;;;;;10403818;28;20117;-57
2022/09/16 08:21:42;;;;;;;7.47;2.20;;;;;;;;;;10393245;28;20025;-57
2022/09/16 08:26:43;;;;;;;5.88;2.13;;;;;;;;;;10394402;28;20029;-57
2022/09/16 08:31:43;;;;;;;4.40;1.80;;;;;;;;;;10396101;28;20033;-56
2022/09/16 08:36:43;;;;;;;2.85;1.83;;;;;;;;;;10407511;28;20470;-57
2022/09/16 08:42:03;;;;;;;3.28;2.13;;;;;;;;;;10391834;28;20046;-56
2022/09/16 08:47:07;;;;;;;5.55;1.70;;;;;;;;;;10402247;28;20116;-57
2022/09/16 08:52:11;;;;;;;5.22;1.98;;;;;;;;;;10372634;28;20040;-56
2022/09/16 08:57:16;;;;;;;5.68;2.05;;;;;;;;;;10403677;28;20081;-57
2022/09/16 09:02:22;;;;;;;7.00;2.22;;;;;;;;;;10387596;28;20071;-57
2022/09/16 09:07:41;;;;;;;4.10;1.90;;;;;;;;;;10388339;28;20029;-56
2022/09/16 09:12:44;;;;;;;5.93;1.83;;;;;;;;;;10407037;28;20110;-57
2022/09/16 09:18:00;;;;;;;4.70;1.95;;;;;;;;;;10393228;28;20145;-58
2022/09/16 09:23:16;;;;;;;7.00;1.80;;;;;;;;;;10400999;28;20485;-58
2022/09/16 09:28:21;;;;;;;8.98;1.95;;;;;;;;;;10387391;28;20055;-57
2022/09/16 09:33:32;;;;;;;4.28;1.90;;;;;;;;;;10405996;28;20026;-57
2022/09/16 09:38:52;;;;;;;10.10;2.35;;;;;;;;;;10404815;28;20108;-57
2022/09/16 09:44:22;;;;;;;6.30;2.53;;;;;;;;;;10405371;28;20136;-56
2022/09/16 09:49:31;;;;;;;4.90;1.90;;;;;;;;;;10399805;28;20037;-57
2022/09/16 09:54:33;;;;;;;6.50;1.85;;;;;;;;;;10406033;28;20095;-57
2022/09/16 09:59:34;;;;;;;5.30;2.00;;;;;;;;;;10392714;28;20017;-56
2022/09/16 10:04:38;;;;;;;5.85;1.92;;;;;;;;;;10393412;28;20021;-57
2022/09/16 10:09:44;;;;;;;6.13;1.73;;;;;;;;;;10404478;28;20116;-57
2022/09/16 10:14:45;;;;;;;5.93;2.17;;;;;;;;;;10413173;28;20041;-56
2022/09/16 10:19:59;;;;;;;4.50;1.65;;;;;;;;;;10399994;28;20033;-56
2022/09/16 10:25:06;;;;;;;8.52;3.00;;;;;;;;;;10399258;28;20033;-56
2022/09/16 10:30:07;;;;;;;17.67;5.43;;;;;;;;;;10412717;28;20115;-57
2022/09/16 10:35:07;;;;;;;11.85;5.38;;;;;;;;;;10411887;28;20036;-56
2022/09/16 10:40:14;;;;;;;17.60;5.38;;;;;;;;;;10406499;28;20065;-56
2022/09/16 10:45:20;;;;;;;13.80;3.97;;;;;;;;;;10398544;28;20033;-56
2022/09/16 10:50:20;;;;;;;11.80;4.40;;;;;;;;;;10410430;28;20485;-56
2022/09/16 10:55:23;;;;;;;7.32;2.88;;;;;;;;;;10411653;28;20265;-56
2022/09/16 11:00:24;;;;;;;14.82;3.97;;;;;;;;;;10411082;28;20032;-57
2022/09/16 11:05:25;;;;;;;9.27;2.78;;;;;;;;;;10405056;28;20029;-56
2022/09/16 11:10:34;;;;;;;7.70;2.85;;;;;;;;;;10390919;28;20037;-57
2022/09/16 11:15:48;;;;;;;10.13;3.10;;;;;;;;;;10395126;28;20042;-57
2022/09/16 11:20:57;;;;;;;4.78;1.90;;;;;;;;;;10397275;28;20025;-57
2022/09/16 11:26:07;;;;;;;9.05;2.08;;;;;;;;;;10408484;28;20021;-57
2022/09/16 11:31:13;;;;;;;6.97;2.22;;;;;;;;;;10397864;28;20030;-57
2022/09/16 11:36:13;;;;;;;6.72;2.00;;;;;;;;;;10409444;28;20414;-57
2022/09/16 11:41:17;;;;;;;6.07;2.10;;;;;;;;;;10407900;28;20097;-56
2022/09/16 11:46:32;;;;;;;4.75;1.70;;;;;;;;;;10396351;28;20017;-57
2022/09/16 11:51:40;;;;;;;7.40;2.00;;;;;;;;;;10408751;28;20231;-57
2022/09/16 11:56:46;;;;;;;4.97;1.83;;;;;;;;;;10406744;28;20097;-57
2022/09/16 12:01:57;;;;;;;5.63;2.20;;;;;;;;;;10400489;28;20030;-56
2022/09/16 12:07:00;;;;;;;4.53;1.77;;;;;;;;;;10407952;28;20033;-57
2022/09/16 12:12:05;;;;;;;5.63;2.08;;;;;;;;;;10406748;28;20584;-57
2022/09/16 12:17:07;;;;;;;5.35;1.92;;;;;;;;;;10406885;28;20421;-57
2022/09/16 12:22:15;;;;;;;5.95;1.80;;;;;;;;;;10403985;28;20236;-54
2022/09/16 12:27:32;;;;;;;5.15;1.65;;;;;;;;;;10380640;28;20084;-57
2022/09/16 12:32:37;;;;;;;4.78;1.70;;;;;;;;;;10403723;28;20101;-57
2022/09/16 12:37:46;;;;;;;6.57;2.13;;;;;;;;;;10398915;28;20038;-57
2022/09/16 12:42:59;;;;;;;3.33;1.83;;;;;;;;;;10406702;28;20036;-57
2022/09/16 12:48:31;;;;;;;5.95;1.85;;;;;;;;;;10395497;28;20029;-57
2022/09/16 12:53:50;;;;;;;7.85;1.83;;;;;;;;;;10378245;28;20042;-56
2022/09/16 12:59:01;;;;;;;10.32;2.40;;;;;;;;;;10383615;28;20025;-56
2022/09/16 13:04:07;;;;;;;8.52;2.20;;;;;;;;;;10405123;28;20025;-57
2022/09/16 13:09:20;;;;;;;6.03;1.80;;;;;;;;;;10394735;28;20032;-57
2022/09/16 13:14:26;;;;;;;6.57;1.70;;;;;;;;;;10404870;28;20397;-57
2022/09/16 13:19:33;;;;;;;10.05;2.30;;;;;;;;;;10406670;28;20030;-57
2022/09/16 13:24:39;;;;;;;5.03;1.90;;;;;;;;;;10406165;28;20351;-57
2022/09/16 13:29:42;;;;;;;4.65;1.92;;;;;;;;;;10406409;28;20031;-57
2022/09/16 13:34:42;;;;;;;5.70;1.83;;;;;;;;;;10405692;28;20041;-57
2022/09/16 13:39:43;;;;;;;5.38;1.80;;;;;;;;;;10406090;28;20025;-57
2022/09/16 13:44:43;;;;;;;9.27;1.92;;;;;;;;;;10414244;28;20021;-57
2022/09/16 13:49:49;;;;;;;4.47;1.50;;;;;;;;;;10400593;28;20029;-57
2022/09/16 13:54:51;;;;;;;4.15;1.90;;;;;;;;;;10413544;28;20040;-57
2022/09/16 14:00:10;;;;;;;8.20;1.80;;;;;;;;;;10412645;28;20473;-57
2022/09/16 14:05:29;;;;;;;6.03;1.90;;;;;;;;;;10412559;28;20029;-57
2022/09/16 14:10:44;;;;;;;5.50;1.77;;;;;;;;;;10410729;28;20044;-57
2022/09/16 14:15:52;;;;;;;5.18;1.90;;;;;;;;;;10412515;28;20041;-57
2022/09/16 14:21:03;;;;;;;3.90;1.50;;;;;;;;;;10396915;28;20033;-57
2022/09/16 14:26:12;;;;;;;3.90;1.70;;;;;;;;;;10412825;28;20091;-57
2022/09/16 14:31:17;;;;;;;6.57;2.08;;;;;;;;;;10412286;28;20061;-56
2022/09/16 14:36:19;;;;;;;5.28;2.05;;;;;;;;;;10393001;28;20409;-57
2022/09/16 14:41:29;;;;;;;6.38;1.73;;;;;;;;;;10393285;28;20095;-56
2022/09/16 14:46:30;;;;;;;4.28;1.73;;;;;;;;;;10397522;28;20025;-57
2022/09/16 14:51:30;;;;;;;3.97;1.63;;;;;;;;;;10411564;28;20523;-57
2022/09/16 14:56:30;;;;;;;5.25;1.90;;;;;;;;;;10411940;28;20065;-57
2022/09/16 15:01:30;;;;;;;6.88;1.95;;;;;;;;;;10410145;28;20033;-56
2022/09/16 15:06:34;;;;;;;4.97;2.08;;;;;;;;;;10398030;28;20026;-56
2022/09/16 15:11:44;;;;;;;5.15;1.90;;;;;;;;;;10385118;28;20032;-57
2022/09/16 15:16:46;;;;;;;5.60;1.70;;;;;;;;;;10410280;28;20458;-57
2022/09/16 15:21:47;;;;;;;4.38;1.67;;;;;;;;;;10399261;28;20440;-57
2022/09/16 15:26:48;;;;;;;6.43;1.80;;;;;;;;;;10398079;28;20112;-56
2022/09/16 15:31:49;;;;;;;6.75;2.38;;;;;;;;;;10410108;28;20041;-56
2022/09/16 15:36:51;;;;;;;7.28;1.80;;;;;;;;;;10407275;28;20017;-56
2022/09/16 15:42:11;;;;;;;8.70;2.08;;;;;;;;;;10404853;28;20507;-56
2022/09/16 15:47:17;;;;;;;12.07;2.05;;;;;;;;;;10403417;28;20073;-57
2022/09/16 15:52:17;;;;;;;4.97;2.17;;;;;;;;;;10404584;28;20562;-57
2022/09/16 15:57:18;;;;;;;5.47;2.03;;;;;;;;;;10407305;28;20092;-56
2022/09/16 16:02:41;;;;;;;6.88;1.80;;;;;;;;;;10406804;28;20042;-56
2022/09/16 16:07:53;;;;;;;9.05;1.88;;;;;;;;;;10404249;28;20400;-56
2022/09/16 16:12:54;;;;;;;6.20;2.05;;;;;;;;;;10404454;28;20040;-56
2022/09/16 16:17:57;;;;;;;5.72;2.17;;;;;;;;;;10400817;28;20046;-56
2022/09/16 16:22:57;;;;;;;5.35;1.88;;;;;;;;;;10405843;28;20013;-56
2022/09/16 16:27:57;;;;;;;5.35;2.05;;;;;;;;;;10399821;28;20404;-56
2022/09/16 16:32:58;;;;;;;3.42;1.85;;;;;;;;;;10399182;28;20095;-52
2022/09/16 16:37:58;;;;;;;5.25;1.77;;;;;;;;;;10400456;28;20033;-52
2022/09/16 16:42:58;;;;;;;6.07;1.92;;;;;;;;;;10403457;28;20079;-49
2022/09/16 16:47:59;;;;;;;5.60;1.73;;;;;;;;;;10405685;28;20021;-53
2022/09/16 16:52:59;;;;;;;3.17;1.50;;;;;;;;;;10396468;28;20037;-52
2022/09/16 16:57:59;;;;;;;4.60;1.60;;;;;;;;;;10394774;28;20034;-52
2022/09/16 17:03:00;;;;;;;3.95;1.90;;;;;;;;;;10382341;28;20091;-52
2022/09/16 17:08:00;;;;;;;5.05;2.10;;;;;;;;;;10400283;28;20056;-48
2022/09/16 17:13:00;;;;;;;4.50;1.83;;;;;;;;;;11363690;22;20053;-51
2022/09/16 17:18:01;;;;;;;6.32;2.75;;;;;;;;;;10378242;28;20388;-52
2022/09/16 17:23:01;;;;;;;4.25;1.67;;;;;;;;;;10368326;28;20125;-52
2022/09/16 17:28:01;;;;;;;4.45;1.77;;;;;;;;;;10365725;28;20084;-52
2022/09/16 17:33:01;;;;;;;8.70;2.00;;;;;;;;;;10357812;28;20050;-53
2022/09/16 17:38:02;;;;;;;7.43;1.80;;;;;;;;;;10359764;28;20781;-51
2022/09/16 17:43:02;;;;;;;3.70;1.50;;;;;;;;;;10350982;28;20113;-52
2022/09/16 17:48:02;;;;;;;6.13;2.00;;;;;;;;;;10367443;28;20022;-52
2022/09/16 17:53:03;;;;;;;4.07;1.93;;;;;;;;;;10361298;28;20061;-53
2022/09/16 17:58:03;;;;;;;4.38;1.50;;;;;;;;;;10365476;28;20033;-51
2022/09/16 18:03:04;;;;;;;6.45;1.92;;;;;;;;;;10369739;28;20404;-52
2022/09/16 18:08:05;;;;;;;4.07;1.80;;;;;;;;;;10365336;28;20124;-50
2022/09/16 18:13:05;;;;;;;6.88;1.90;;;;;;;;;;10363452;28;20522;-50
2022/09/16 18:18:05;;;;;;;6.63;2.03;;;;;;;;;;10355257;28;20173;-49
2022/09/16 18:23:06;;;;;;;7.40;2.07;;;;;;;;;;10358363;28;20505;-52
2022/09/16 18:28:06;;;;;;;3.90;1.60;;;;;;;;;;10370876;28;21025;-50
2022/09/16 18:33:08;;;;;;;2.42;1.33;;;;;;;;;;10370902;28;20475;-57
2022/09/16 18:38:09;;;;;;;5.97;1.70;;;;;;;;;;10385799;28;20163;-57
2022/09/16 18:43:09;;;;;;;4.05;1.67;;;;;;;;;;10385182;28;20024;-57
2022/09/16 18:48:09;;;;;;;3.55;1.42;;;;;;;;;;10370503;28;20036;-57
2022/09/16 18:53:10;;;;;;;5.28;1.80;;;;;;;;;;10375290;28;20018;-57
2022/09/16 18:58:10;;;;;;;6.25;1.50;;;;;;;;;;10381069;28;20060;-57
2022/09/16 19:03:10;;;;;;;3.42;1.38;;;;;;;;;;10373208;28;20056;-57
2022/09/16 19:08:11;;;;;;;3.42;1.50;;;;;;;;;;10378706;28;20034;-57
2022/09/16 19:13:11;;;;;;;4.65;1.45;;;;;;;;;;10371702;28;20306;-56
2022/09/16 19:18:12;;;;;;;3.77;1.50;;;;;;;;;;10376220;28;20041;-56
2022/09/16 19:23:13;;;;;;;4.05;1.73;;;;;;;;;;10371939;28;20476;-57
2022/09/16 19:28:13;;;;;;;2.50;1.25;;;;;;;;;;10378378;28;20034;-55
2022/09/16 19:33:13;;;;;;;6.20;1.20;;;;;;;;;;10376941;28;20022;-55
2022/09/16 19:38:14;;;;;;;1.88;1.20;;;;;;;;;;10375505;28;20451;-52
2022/09/16 19:43:14;;;;;;;11.13;1.50;;;;;;;;;;10386084;28;20119;-56
2022/09/16 19:48:14;;;;;;;7.57;1.20;;;;;;;;;;10377808;28;20032;-53
2022/09/16 19:53:15;;;;;;;3.63;1.48;;;;;;;;;;10369594;28;20037;-55
2022/09/16 19:58:15;;;;;;;3.50;1.38;;;;;;;;;;10367494;28;20037;-55
2022/09/16 20:03:16;;;;;;;2.85;1.17;;;;;;;;;;10369269;28;20512;-57
2022/09/16 20:08:16;;;;;;;3.35;1.17;;;;;;;;;;10381751;28;20253;-56
2022/09/16 20:13:17;;;;;;;4.03;1.40;;;;;;;;;;10368555;28;20057;-57
2022/09/16 20:18:18;;;;;;;5.28;1.40;;;;;;;;;;10373112;28;20026;-57
2022/09/16 20:23:18;;;;;;;4.63;1.30;;;;;;;;;;10364582;28;20088;-57
2022/09/16 20:28:19;;;;;;;10.65;1.40;;;;;;;;;;10358021;28;20865;-57
2022/09/16 20:33:19;;;;;;;4.78;1.40;;;;;;;;;;10377197;28;20404;-57
2022/09/16 20:38:19;;;;;;;2.72;1.00;;;;;;;;;;10356510;28;20087;-57
2022/09/16 20:43:19;;;;;;;1.83;1.00;;;;;;;;;;10381022;28;20053;-57
2022/09/16 20:48:20;;;;;;;3.33;0.93;;;;;;;;;;10366277;28;20036;-57
2022/09/16 20:53:20;;;;;;;2.65;0.88;;;;;;;;;;10377414;28;20065;-57
2022/09/16 20:58:20;;;;;;;2.45;0.80;;;;;;;;;;10378825;28;20033;-57
2022/09/16 21:03:21;;;;;;;3.60;0.70;;;;;;;;;;10366396;28;20022;-57
2022/09/16 21:08:21;;;;;;;1.65;0.82;;;;;;;;;;10359542;28;20534;-57
2022/09/16 21:13:23;;;;;;;1.17;0.80;;;;;;;;;;10365742;28;20068;-57
2022/09/16 21:18:25;;;;;;;2.42;1.15;;;;;;;;;;10387621;28;20025;-57
2022/09/16 21:23:26;;;;;;;2.97;0.90;;;;;;;;;;10372042;28;20063;-57
2022/09/16 21:28:26;;;;;;;1.10;0.70;;;;;;;;;;10365741;28;20041;-57
2022/09/16 21:33:27;;;;;;;1.80;0.90;;;;;;;;;;10364448;28;20499;-57
2022/09/16 21:38:28;;;;;;;1.60;0.70;;;;;;;;;;10367103;28;20044;-57
2022/09/16 21:43:30;;;;;;;1.77;0.85;;;;;;;;;;10384930;28;20499;-57
2022/09/16 21:48:31;;;;;;;4.25;0.95;;;;;;;;;;10379421;28;20105;-57
2022/09/16 21:53:33;;;;;;;2.08;0.90;;;;;;;;;;10354476;28;20030;-57
2022/09/16 21:58:33;;;;;;;1.95;0.70;;;;;;;;;;10365223;28;20445;-57
2022/09/16 22:03:34;;;;;;;8.50;1.17;;;;;;;;;;10364860;28;20104;-60
2022/09/16 22:08:35;;;;;;;3.20;1.00;;;;;;;;;;10371278;28;20034;-59
2022/09/16 22:13:35;;;;;;;3.28;0.98;;;;;;;;;;10369772;28;20040;-58
2022/09/16 22:18:38;;;;;;;3.47;0.80;;;;;;;;;;10370681;28;20034;-58
2022/09/16 22:23:39;;;;;;;3.75;0.90;;;;;;;;;;10372448;28;20499;-58
2022/09/16 22:28:40;;;;;;;1.67;0.70;;;;;;;;;;10366402;28;20069;-59
2022/09/16 22:33:41;;;;;;;4.50;0.68;;;;;;;;;;10382119;28;20065;-58
2022/09/16 22:38:46;;;;;;;4.97;0.63;;;;;;;;;;10383992;28;20485;-55
2022/09/16 22:43:47;;;;;;;1.52;0.70;;;;;;;;;;10397722;28;20388;-58
2022/09/16 22:48:47;;;;;;;5.65;1.15;;;;;;;;;;10384642;28;20042;-58
2022/09/16 22:53:47;;;;;;;3.43;0.80;;;;;;;;;;10382039;28;20029;-59
2022/09/16 22:58:54;;;;;;;4.27;0.90;;;;;;;;;;10372667;28;21009;-58
2022/09/16 23:03:56;;;;;;;4.83;0.70;;;;;;;;;;10368298;28;20022;-58
2022/09/16 23:08:57;;;;;;;0.57;0.57;;;;;;;;;;10367205;28;20034;-58
2022/09/16 23:13:58;;;;;;;4.13;0.57;;;;;;;;;;10368192;28;20042;-58
2022/09/16 23:18:59;;;;;;;3.25;0.95;;;;;;;;;;10370060;28;20026;-58
2022/09/16 23:24:00;;;;;;;1.42;0.80;;;;;;;;;;10364390;28;20056;-59
2022/09/16 23:29:01;;;;;;;1.88;0.73;;;;;;;;;;10372956;28;20033;-58
2022/09/16 23:34:06;;;;;;;1.08;0.65;;;;;;;;;;10373346;28;20026;-59
2022/09/16 23:39:07;;;;;;;3.28;0.70;;;;;;;;;;10372146;28;20034;-56
2022/09/16 23:44:07;;;;;;;1.10;0.50;;;;;;;;;;10359460;28;20033;-57
2022/09/16 23:49:08;;;;;;;2.35;0.60;;;;;;;;;;10369845;28;20508;-57
2022/09/16 23:54:09;;;;;;;5.00;1.08;;;;;;;;;;10370434;28;20358;-58
2022/09/16 23:59:09;;;;;;;1.05;0.77;;;;;;;;;;10369561;28;20030;-59
